sensor_id;sensor_type;location;lat;lon;timestamp;pressure;altitude;pressure_sealevel;temperature;humidity
45525;BME280;31437;58.350;13.828;2022-12-10T00:00:21;99304.03;;;-7.72;nan
45525;BME280;31437;58.350;13.828;2022-12-10T00:02:46;99304.03;;;-7.75;nan
45525;BME280;31437;58.350;13.828;2022-12-10T00:05:11;99298.09;;;-7.76;nan
45525;BME280;31437;58.350;13.828;2022-12-10T00:07:36;99304.03;;;-7.75;nan
45525;BME280;31437;58.350;13.828;2022-12-10T00:10:02;99307.41;;;-7.75;nan
45525;BME280;31437;58.350;13.828;2022-12-10T00:12:29;99308.25;;;-7.74;nan
45525;BME280;31437;58.350;13.828;2022-12-10T00:14:54;99311.63;;;-7.77;nan
45525;BME280;31437;58.350;13.828;2022-12-10T00:17:19;99309.94;;;-7.78;nan
45525;BME280;31437;58.350;13.828;2022-12-10T00:19:44;99307.41;;;-7.78;nan
45525;BME280;31437;58.350;13.828;2022-12-10T00:22:10;99306.56;;;-7.79;nan
45525;BME280;31437;58.350;13.828;2022-12-10T00:24:35;99309.09;;;-7.74;nan
45525;BME280;31437;58.350;13.828;2022-12-10T00:27:01;99309.09;;;-7.74;nan
45525;BME280;31437;58.350;13.828;2022-12-10T00:29:26;99308.28;;;-7.71;nan
45525;BME280;31437;58.350;13.828;2022-12-10T00:31:51;99312.56;;;-7.70;nan
45525;BME280;31437;58.350;13.828;2022-12-10T00:34:17;99312.56;;;-7.67;nan
45525;BME280;31437;58.350;13.828;2022-12-10T00:36:46;99313.41;;;-7.67;nan
45525;BME280;31437;58.350;13.828;2022-12-10T00:39:14;99319.34;;;-7.66;nan
45525;BME280;31437;58.350;13.828;2022-12-10T00:41:39;99318.50;;;-7.65;nan
45525;BME280;31437;58.350;13.828;2022-12-10T00:44:05;99320.22;;;-7.63;nan
45525;BME280;31437;58.350;13.828;2022-12-10T00:46:30;99314.28;;;-7.60;nan
45525;BME280;31437;58.350;13.828;2022-12-10T00:48:55;99321.06;;;-7.59;nan
45525;BME280;31437;58.350;13.828;2022-12-10T00:51:22;99318.56;;;-7.58;nan
45525;BME280;31437;58.350;13.828;2022-12-10T00:53:48;99316.00;;;-7.56;nan
45525;BME280;31437;58.350;13.828;2022-12-10T00:56:14;99318.56;;;-7.51;nan
45525;BME280;31437;58.350;13.828;2022-12-10T00:58:39;99311.81;;;-7.49;nan
45525;BME280;31437;58.350;13.828;2022-12-10T01:01:13;99311.78;;;-7.48;nan
45525;BME280;31437;58.350;13.828;2022-12-10T01:03:40;99310.09;;;-7.44;nan
45525;BME280;31437;58.350;13.828;2022-12-10T01:06:40;99319.47;;;-7.42;nan
45525;BME280;31437;58.350;13.828;2022-12-10T01:08:59;99321.19;;;-7.41;nan
45525;BME280;31437;58.350;13.828;2022-12-10T01:11:26;99326.28;;;-7.38;nan
45525;BME280;31437;58.350;13.828;2022-12-10T01:13:52;99318.63;;;-7.36;nan
45525;BME280;31437;58.350;13.828;2022-12-10T01:16:18;99322.03;;;-7.33;nan
45525;BME280;31437;58.350;13.828;2022-12-10T01:18:43;99321.22;;;-7.30;nan
45525;BME280;31437;58.350;13.828;2022-12-10T01:21:10;99331.44;;;-7.28;nan
45525;BME280;31437;58.350;13.828;2022-12-10T01:23:36;99325.47;;;-7.29;nan
45525;BME280;31437;58.350;13.828;2022-12-10T01:26:02;99321.22;;;-7.32;nan
45525;BME280;31437;58.350;13.828;2022-12-10T01:28:29;99328.03;;;-7.29;nan
45525;BME280;31437;58.350;13.828;2022-12-10T01:30:55;99313.56;;;-7.35;nan
45525;BME280;31437;58.350;13.828;2022-12-10T01:33:20;99334.84;;;-7.25;nan
45525;BME280;31437;58.350;13.828;2022-12-10T01:35:45;99328.03;;;-7.24;nan
45525;BME280;31437;58.350;13.828;2022-12-10T01:38:10;99332.28;;;-7.22;nan
45525;BME280;31437;58.350;13.828;2022-12-10T01:40:39;99329.75;;;-7.20;nan
45525;BME280;31437;58.350;13.828;2022-12-10T01:43:04;99335.69;;;-7.18;nan
45525;BME280;31437;58.350;13.828;2022-12-10T01:45:29;99334.00;;;-7.18;nan
45525;BME280;31437;58.350;13.828;2022-12-10T01:47:55;99333.16;;;-7.17;nan
45525;BME280;31437;58.350;13.828;2022-12-10T01:50:20;99336.56;;;-7.16;nan
45525;BME280;31437;58.350;13.828;2022-12-10T01:52:45;99330.59;;;-7.15;nan
45525;BME280;31437;58.350;13.828;2022-12-10T01:57:55;99336.56;;;-7.15;nan
45525;BME280;31437;58.350;13.828;2022-12-10T02:00:20;99340.81;;;-7.12;nan
45525;BME280;31437;58.350;13.828;2022-12-10T02:02:46;99330.63;;;-7.11;nan
45525;BME280;31437;58.350;13.828;2022-12-10T02:05:29;99332.34;;;-7.11;nan
45525;BME280;31437;58.350;13.828;2022-12-10T02:10:44;99340.81;;;-7.09;nan
45525;BME280;31437;58.350;13.828;2022-12-10T02:15:51;99339.16;;;-7.05;nan
45525;BME280;31437;58.350;13.828;2022-12-10T02:18:24;99343.38;;;-7.06;nan
45525;BME280;31437;58.350;13.828;2022-12-10T02:20:58;99328.94;;;-7.04;nan
45525;BME280;31437;58.350;13.828;2022-12-10T02:23:42;99332.38;;;-7.02;nan
45525;BME280;31437;58.350;13.828;2022-12-10T02:26:23;99340.00;;;-6.97;nan
45525;BME280;31437;58.350;13.828;2022-12-10T02:31:21;99351.06;;;-6.95;nan
45525;BME280;31437;58.350;13.828;2022-12-10T02:33:49;99346.84;;;-6.93;nan
45525;BME280;31437;58.350;13.828;2022-12-10T02:36:15;99340.88;;;-6.92;nan
45525;BME280;31437;58.350;13.828;2022-12-10T02:38:41;99336.66;;;-6.93;nan
45525;BME280;31437;58.350;13.828;2022-12-10T02:41:08;99346.00;;;-6.89;nan
45525;BME280;31437;58.350;13.828;2022-12-10T02:43:37;99342.63;;;-6.88;nan
45525;BME280;31437;58.350;13.828;2022-12-10T02:46:03;99336.66;;;-6.86;nan
45525;BME280;31437;58.350;13.828;2022-12-10T02:48:29;99350.25;;;-6.83;nan
45525;BME280;31437;58.350;13.828;2022-12-10T02:50:54;99351.94;;;-6.82;nan
45525;BME280;31437;58.350;13.828;2022-12-10T02:53:20;99352.81;;;-6.80;nan
45525;BME280;31437;58.350;13.828;2022-12-10T02:59:16;99357.09;;;-6.76;nan
45525;BME280;31437;58.350;13.828;2022-12-10T03:03:50;99352.84;;;-6.71;nan
45525;BME280;31437;58.350;13.828;2022-12-10T03:06:20;99351.16;;;-6.72;nan
45525;BME280;31437;58.350;13.828;2022-12-10T03:08:51;99349.47;;;-6.70;nan
45525;BME280;31437;58.350;13.828;2022-12-10T03:11:21;99346.91;;;-6.70;nan
45525;BME280;31437;58.350;13.828;2022-12-10T03:14:00;99352.84;;;-6.67;nan
45525;BME280;31437;58.350;13.828;2022-12-10T03:16:42;99351.16;;;-6.63;nan
45525;BME280;31437;58.350;13.828;2022-12-10T03:19:16;99348.59;;;-6.63;nan
45525;BME280;31437;58.350;13.828;2022-12-10T03:21:42;99351.16;;;-6.63;nan
45525;BME280;31437;58.350;13.828;2022-12-10T03:24:09;99346.06;;;-6.61;nan
45525;BME280;31437;58.350;13.828;2022-12-10T03:26:36;99345.19;;;-6.62;nan
45525;BME280;31437;58.350;13.828;2022-12-10T03:29:05;99345.19;;;-6.62;nan
45525;BME280;31437;58.350;13.828;2022-12-10T03:31:31;99346.06;;;-6.61;nan
45525;BME280;31437;58.350;13.828;2022-12-10T03:33:58;99346.06;;;-6.60;nan
45525;BME280;31437;58.350;13.828;2022-12-10T03:36:24;99345.22;;;-6.60;nan
45525;BME280;31437;58.350;13.828;2022-12-10T03:38:50;99346.91;;;-6.59;nan
45525;BME280;31437;58.350;13.828;2022-12-10T03:41:16;99346.06;;;-6.58;nan
45525;BME280;31437;58.350;13.828;2022-12-10T03:43:51;99344.34;;;-6.59;nan
45525;BME280;31437;58.350;13.828;2022-12-10T03:46:17;99346.91;;;-6.58;nan
45525;BME280;31437;58.350;13.828;2022-12-10T03:48:42;99352.00;;;-6.56;nan
45525;BME280;31437;58.350;13.828;2022-12-10T03:51:07;99346.09;;;-6.55;nan
45525;BME280;31437;58.350;13.828;2022-12-10T03:53:33;99352.88;;;-6.54;nan
45525;BME280;31437;58.350;13.828;2022-12-10T03:55:59;99346.09;;;-6.52;nan
45525;BME280;31437;58.350;13.828;2022-12-10T03:58:26;99346.91;;;-6.53;nan
45525;BME280;31437;58.350;13.828;2022-12-10T04:00:51;99345.25;;;-6.50;nan
45525;BME280;31437;58.350;13.828;2022-12-10T04:03:16;99340.13;;;-6.50;nan
45525;BME280;31437;58.350;13.828;2022-12-10T04:05:42;99345.25;;;-6.50;nan
45525;BME280;31437;58.350;13.828;2022-12-10T04:08:07;99350.34;;;-6.50;nan
45525;BME280;31437;58.350;13.828;2022-12-10T04:10:38;99352.00;;;-6.53;nan
45525;BME280;31437;58.350;13.828;2022-12-10T04:13:04;99329.91;;;-6.64;nan
45525;BME280;31437;58.350;13.828;2022-12-10T04:15:48;99350.34;;;-6.50;nan
45525;BME280;31437;58.350;13.828;2022-12-10T04:18:32;99352.88;;;-6.48;nan
45525;BME280;31437;58.350;13.828;2022-12-10T04:20:57;99346.94;;;-6.46;nan
45525;BME280;31437;58.350;13.828;2022-12-10T04:23:41;99344.38;;;-6.46;nan
45525;BME280;31437;58.350;13.828;2022-12-10T04:26:41;99336.72;;;-6.46;nan
45525;BME280;31437;58.350;13.828;2022-12-10T04:29:23;99337.56;;;-6.45;nan
45525;BME280;31437;58.350;13.828;2022-12-10T04:31:49;99338.41;;;-6.45;nan
45525;BME280;31437;58.350;13.828;2022-12-10T04:34:14;99345.22;;;-6.42;nan
45525;BME280;31437;58.350;13.828;2022-12-10T04:36:39;99339.28;;;-6.41;nan
45525;BME280;31437;58.350;13.828;2022-12-10T04:39:05;99342.69;;;-6.41;nan
45525;BME280;31437;58.350;13.828;2022-12-10T04:41:30;99337.56;;;-6.42;nan
45525;BME280;31437;58.350;13.828;2022-12-10T04:43:55;99341.84;;;-6.40;nan
45525;BME280;31437;58.350;13.828;2022-12-10T04:46:21;99342.69;;;-6.39;nan
45525;BME280;31437;58.350;13.828;2022-12-10T04:48:46;99344.41;;;-6.38;nan
45525;BME280;31437;58.350;13.828;2022-12-10T04:51:11;99343.53;;;-6.37;nan
45525;BME280;31437;58.350;13.828;2022-12-10T04:53:37;99348.63;;;-6.38;nan
45525;BME280;31437;58.350;13.828;2022-12-10T04:56:02;99349.50;;;-6.40;nan
45525;BME280;31437;58.350;13.828;2022-12-10T04:58:30;99350.34;;;-6.39;nan
45525;BME280;31437;58.350;13.828;2022-12-10T05:01:02;99341.84;;;-6.40;nan
45525;BME280;31437;58.350;13.828;2022-12-10T05:03:27;99340.97;;;-6.38;nan
45525;BME280;31437;58.350;13.828;2022-12-10T05:05:52;99339.28;;;-6.41;nan
45525;BME280;31437;58.350;13.828;2022-12-10T05:08:18;99346.94;;;-6.40;nan
45525;BME280;31437;58.350;13.828;2022-12-10T05:10:43;99344.41;;;-6.38;nan
45525;BME280;31437;58.350;13.828;2022-12-10T05:13:09;99344.38;;;-6.36;nan
45525;BME280;31437;58.350;13.828;2022-12-10T05:15:37;99337.56;;;-6.36;nan
45525;BME280;31437;58.350;13.828;2022-12-10T05:18:02;99340.13;;;-6.36;nan
45525;BME280;31437;58.350;13.828;2022-12-10T05:20:27;99339.28;;;-6.35;nan
45525;BME280;31437;58.350;13.828;2022-12-10T05:22:53;99335.88;;;-6.34;nan
45525;BME280;31437;58.350;13.828;2022-12-10T05:25:37;99338.44;;;-6.34;nan
45525;BME280;31437;58.350;13.828;2022-12-10T05:28:18;99346.06;;;-6.32;nan
45525;BME280;31437;58.350;13.828;2022-12-10T05:30:43;99342.69;;;-6.33;nan
45525;BME280;31437;58.350;13.828;2022-12-10T05:33:08;99342.69;;;-6.33;nan
45525;BME280;31437;58.350;13.828;2022-12-10T05:35:34;99343.53;;;-6.32;nan
45525;BME280;31437;58.350;13.828;2022-12-10T05:37:59;99345.22;;;-6.33;nan
45525;BME280;31437;58.350;13.828;2022-12-10T05:40:24;99346.94;;;-6.30;nan
45525;BME280;31437;58.350;13.828;2022-12-10T05:42:49;99341.84;;;-6.30;nan
45525;BME280;31437;58.350;13.828;2022-12-10T05:45:15;99340.13;;;-6.30;nan
45525;BME280;31437;58.350;13.828;2022-12-10T05:47:40;99344.41;;;-6.29;nan
45525;BME280;31437;58.350;13.828;2022-12-10T05:50:05;99344.38;;;-6.27;nan
45525;BME280;31437;58.350;13.828;2022-12-10T05:52:30;99341.84;;;-6.27;nan
45525;BME280;31437;58.350;13.828;2022-12-10T05:54:56;99350.34;;;-6.27;nan
45525;BME280;31437;58.350;13.828;2022-12-10T05:57:21;99342.69;;;-6.27;nan
45525;BME280;31437;58.350;13.828;2022-12-10T05:59:46;99349.50;;;-6.26;nan
45525;BME280;31437;58.350;13.828;2022-12-10T06:02:11;99349.50;;;-6.23;nan
45525;BME280;31437;58.350;13.828;2022-12-10T06:04:37;99352.06;;;-6.23;nan
45525;BME280;31437;58.350;13.828;2022-12-10T06:07:02;99348.66;;;-6.22;nan
45525;BME280;31437;58.350;13.828;2022-12-10T06:09:27;99349.50;;;-6.23;nan
45525;BME280;31437;58.350;13.828;2022-12-10T06:11:52;99352.91;;;-6.22;nan
45525;BME280;31437;58.350;13.828;2022-12-10T06:14:18;99351.19;;;-6.22;nan
45525;BME280;31437;58.350;13.828;2022-12-10T06:16:43;99353.78;;;-6.20;nan
45525;BME280;31437;58.350;13.828;2022-12-10T06:19:08;99350.34;;;-6.19;nan
45525;BME280;31437;58.350;13.828;2022-12-10T06:21:34;99354.63;;;-6.20;nan
45525;BME280;31437;58.350;13.828;2022-12-10T06:23:59;99353.78;;;-6.20;nan
45525;BME280;31437;58.350;13.828;2022-12-10T06:26:25;99349.50;;;-6.18;nan
45525;BME280;31437;58.350;13.828;2022-12-10T06:28:51;99353.75;;;-6.15;nan
45525;BME280;31437;58.350;13.828;2022-12-10T06:31:16;99343.53;;;-6.12;nan
45525;BME280;31437;58.350;13.828;2022-12-10T06:33:42;99348.66;;;-6.11;nan
45525;BME280;31437;58.350;13.828;2022-12-10T06:36:08;99352.91;;;-6.10;nan
45525;BME280;31437;58.350;13.828;2022-12-10T06:38:33;99352.91;;;-6.08;nan
45525;BME280;31437;58.350;13.828;2022-12-10T06:40:59;99352.91;;;-6.07;nan
45525;BME280;31437;58.350;13.828;2022-12-10T06:43:24;99347.81;;;-6.05;nan
45525;BME280;31437;58.350;13.828;2022-12-10T06:45:49;99359.72;;;-6.04;nan
45525;BME280;31437;58.350;13.828;2022-12-10T06:48:15;99358.88;;;-6.02;nan
45525;BME280;31437;58.350;13.828;2022-12-10T06:50:40;99349.50;;;-6.00;nan
45525;BME280;31437;58.350;13.828;2022-12-10T06:53:06;99361.41;;;-5.97;nan
45525;BME280;31437;58.350;13.828;2022-12-10T06:55:31;99355.47;;;-5.96;nan
45525;BME280;31437;58.350;13.828;2022-12-10T06:57:57;99356.31;;;-5.94;nan
45525;BME280;31437;58.350;13.828;2022-12-10T07:00:22;99354.56;;;-5.92;nan
45525;BME280;31437;58.350;13.828;2022-12-10T07:02:47;99351.16;;;-5.89;nan
45525;BME280;31437;58.350;13.828;2022-12-10T07:05:13;99361.38;;;-5.89;nan
45525;BME280;31437;58.350;13.828;2022-12-10T07:07:38;99359.66;;;-5.89;nan
45525;BME280;31437;58.350;13.828;2022-12-10T07:10:04;99359.66;;;-5.89;nan
45525;BME280;31437;58.350;13.828;2022-12-10T07:12:29;99364.78;;;-5.89;nan
45525;BME280;31437;58.350;13.828;2022-12-10T07:14:55;99358.81;;;-5.86;nan
45525;BME280;31437;58.350;13.828;2022-12-10T07:17:20;99365.63;;;-5.85;nan
45525;BME280;31437;58.350;13.828;2022-12-10T07:19:45;99365.63;;;-5.84;nan
45525;BME280;31437;58.350;13.828;2022-12-10T07:22:11;99365.63;;;-5.85;nan
45525;BME280;31437;58.350;13.828;2022-12-10T07:24:36;99369.88;;;-5.83;nan
45525;BME280;31437;58.350;13.828;2022-12-10T07:27:04;99369.03;;;-5.82;nan
45525;BME280;31437;58.350;13.828;2022-12-10T07:29:29;99369.88;;;-5.83;nan
45525;BME280;31437;58.350;13.828;2022-12-10T07:31:54;99359.66;;;-5.81;nan
45525;BME280;31437;58.350;13.828;2022-12-10T07:34:20;99370.72;;;-5.78;nan
45525;BME280;31437;58.350;13.828;2022-12-10T07:36:45;99367.31;;;-5.75;nan
45525;BME280;31437;58.350;13.828;2022-12-10T07:39:12;99371.56;;;-5.74;nan
45525;BME280;31437;58.350;13.828;2022-12-10T07:41:42;99369.88;;;-5.71;nan
45525;BME280;31437;58.350;13.828;2022-12-10T07:44:09;99373.25;;;-5.68;nan
45525;BME280;31437;58.350;13.828;2022-12-10T07:46:35;99377.53;;;-5.67;nan
45525;BME280;31437;58.350;13.828;2022-12-10T07:49:01;99376.69;;;-5.66;nan
45525;BME280;31437;58.350;13.828;2022-12-10T07:51:26;99383.50;;;-5.64;nan
45525;BME280;31437;58.350;13.828;2022-12-10T07:53:52;99381.78;;;-5.63;nan
45525;BME280;31437;58.350;13.828;2022-12-10T07:56:18;99380.09;;;-5.61;nan
45525;BME280;31437;58.350;13.828;2022-12-10T07:58:44;99383.47;;;-5.59;nan
45525;BME280;31437;58.350;13.828;2022-12-10T08:01:11;99383.47;;;-5.58;nan
45525;BME280;31437;58.350;13.828;2022-12-10T08:03:37;99392.84;;;-5.52;nan
45525;BME280;31437;58.350;13.828;2022-12-10T08:06:08;99387.72;;;-5.49;nan
45525;BME280;31437;58.350;13.828;2022-12-10T08:08:35;99390.28;;;-5.46;nan
45525;BME280;31437;58.350;13.828;2022-12-10T08:11:01;99387.72;;;-5.43;nan
45525;BME280;31437;58.350;13.828;2022-12-10T08:13:27;99393.66;;;-5.42;nan
45525;BME280;31437;58.350;13.828;2022-12-10T08:15:52;99394.53;;;-5.40;nan
45525;BME280;31437;58.350;13.828;2022-12-10T08:18:17;99397.06;;;-5.37;nan
45525;BME280;31437;58.350;13.828;2022-12-10T08:20:43;99395.38;;;-5.35;nan
45525;BME280;31437;58.350;13.828;2022-12-10T08:23:08;99399.59;;;-5.33;nan
45525;BME280;31437;58.350;13.828;2022-12-10T08:25:33;99395.34;;;-5.31;nan
45525;BME280;31437;58.350;13.828;2022-12-10T08:28:00;99396.19;;;-5.29;nan
45525;BME280;31437;58.350;13.828;2022-12-10T08:30:27;99402.16;;;-5.25;nan
45525;BME280;31437;58.350;13.828;2022-12-10T08:32:53;99393.63;;;-5.22;nan
45525;BME280;31437;58.350;13.828;2022-12-10T08:35:18;99397.00;;;-5.19;nan
45525;BME280;31437;58.350;13.828;2022-12-10T08:37:43;99409.81;;;-5.17;nan
45525;BME280;31437;58.350;13.828;2022-12-10T08:40:09;99401.28;;;-5.19;nan
45525;BME280;31437;58.350;13.828;2022-12-10T08:42:34;99392.75;;;-5.18;nan
45525;BME280;31437;58.350;13.828;2022-12-10T08:44:59;99391.91;;;-5.22;nan
45525;BME280;31437;58.350;13.828;2022-12-10T08:47:25;99390.22;;;-5.25;nan
45525;BME280;31437;58.350;13.828;2022-12-10T08:49:50;99386.81;;;-5.28;nan
45525;BME280;31437;58.350;13.828;2022-12-10T08:52:15;99390.25;;;-5.38;nan
45525;BME280;31437;58.350;13.828;2022-12-10T08:54:40;99394.53;;;-5.46;nan
45525;BME280;31437;58.350;13.828;2022-12-10T08:57:06;99392.00;;;-5.54;nan
45525;BME280;31437;58.350;13.828;2022-12-10T08:59:31;99390.28;;;-5.57;nan
45525;BME280;31437;58.350;13.828;2022-12-10T09:01:56;99386.88;;;-5.60;nan
45525;BME280;31437;58.350;13.828;2022-12-10T09:04:21;99390.31;;;-5.66;nan
45525;BME280;31437;58.350;13.828;2022-12-10T09:06:47;99392.03;;;-5.73;nan
45525;BME280;31437;58.350;13.828;2022-12-10T09:09:12;99393.72;;;-5.78;nan
45525;BME280;31437;58.350;13.828;2022-12-10T09:11:37;99395.41;;;-5.83;nan
45525;BME280;31437;58.350;13.828;2022-12-10T09:14:03;99395.44;;;-5.87;nan
45525;BME280;31437;58.350;13.828;2022-12-10T09:16:32;99392.88;;;-5.90;nan
45525;BME280;31437;58.350;13.828;2022-12-10T09:18:58;99389.50;;;-5.96;nan
45525;BME280;31437;58.350;13.828;2022-12-10T09:21:24;99389.50;;;-6.02;nan
45525;BME280;31437;58.350;13.828;2022-12-10T09:23:49;99391.22;;;-6.08;nan
45525;BME280;31437;58.350;13.828;2022-12-10T09:26:15;99394.59;;;-6.15;nan
45525;BME280;31437;58.350;13.828;2022-12-10T09:28:41;99396.31;;;-6.19;nan
45525;BME280;31437;58.350;13.828;2022-12-10T09:31:07;99397.16;;;-6.23;nan
45525;BME280;31437;58.350;13.828;2022-12-10T09:33:33;99401.41;;;-6.27;nan
45525;BME280;31437;58.350;13.828;2022-12-10T09:35:58;99406.50;;;-6.25;nan
45525;BME280;31437;58.350;13.828;2022-12-10T09:38:25;99397.16;;;-6.22;nan
45525;BME280;31437;58.350;13.828;2022-12-10T09:41:00;99398.84;;;-6.21;nan
45525;BME280;31437;58.350;13.828;2022-12-10T09:46:31;99402.25;;;-6.15;nan
45525;BME280;31437;58.350;13.828;2022-12-10T09:49:17;99404.81;;;-6.09;nan
45525;BME280;31437;58.350;13.828;2022-12-10T09:51:46;99415.03;;;-6.06;nan
45525;BME280;31437;58.350;13.828;2022-12-10T09:54:17;99414.19;;;-5.99;nan
45525;BME280;31437;58.350;13.828;2022-12-10T09:56:43;99415.03;;;-5.91;nan
45525;BME280;31437;58.350;13.828;2022-12-10T09:59:15;99417.56;;;-5.77;nan
45525;BME280;31437;58.350;13.828;2022-12-10T10:01:42;99424.34;;;-5.62;nan
45525;BME280;31437;58.350;13.828;2022-12-10T10:04:09;99425.22;;;-5.51;nan
45525;BME280;31437;58.350;13.828;2022-12-10T10:06:34;99422.63;;;-5.37;nan
45525;BME280;31437;58.350;13.828;2022-12-10T10:09:00;99424.31;;;-5.27;nan
45525;BME280;31437;58.350;13.828;2022-12-10T10:11:28;99431.06;;;-5.09;nan
45525;BME280;31437;58.350;13.828;2022-12-10T10:13:58;99433.59;;;-4.94;nan
45525;BME280;31437;58.350;13.828;2022-12-10T10:16:37;99426.69;;;-4.76;nan
45525;BME280;31437;58.350;13.828;2022-12-10T10:19:05;99426.63;;;-4.63;nan
45525;BME280;31437;58.350;13.828;2022-12-10T10:21:35;99427.44;;;-4.50;nan
45525;BME280;31437;58.350;13.828;2022-12-10T10:24:01;99425.63;;;-4.31;nan
45525;BME280;31437;58.350;13.828;2022-12-10T10:26:27;99421.34;;;-4.29;nan
45525;BME280;31437;58.350;13.828;2022-12-10T10:28:55;99415.31;;;-4.22;nan
45525;BME280;31437;58.350;13.828;2022-12-10T10:31:22;99409.38;;;-4.28;nan
45525;BME280;31437;58.350;13.828;2022-12-10T10:33:50;99411.88;;;-4.19;nan
45525;BME280;31437;58.350;13.828;2022-12-10T10:36:22;99413.53;;;-4.11;nan
45525;BME280;31437;58.350;13.828;2022-12-10T10:38:47;99407.50;;;-4.03;nan
45525;BME280;31437;58.350;13.828;2022-12-10T10:41:13;99412.72;;;-4.14;nan
45525;BME280;31437;58.350;13.828;2022-12-10T10:43:39;99406.69;;;-4.10;nan
45525;BME280;31437;58.350;13.828;2022-12-10T10:48:31;99410.97;;;-4.11;nan
45525;BME280;31437;58.350;13.828;2022-12-10T10:58:31;99411.84;;;-4.16;nan
45525;BME280;31437;58.350;13.828;2022-12-10T11:01:04;99405.03;;;-4.17;nan
45525;BME280;31437;58.350;13.828;2022-12-10T11:03:30;99403.31;;;-4.15;nan
45525;BME280;31437;58.350;13.828;2022-12-10T11:05:58;99402.47;;;-4.16;nan
45525;BME280;31437;58.350;13.828;2022-12-10T11:08:24;99406.75;;;-4.15;nan
45525;BME280;31437;58.350;13.828;2022-12-10T11:10:51;99398.19;;;-4.14;nan
45525;BME280;31437;58.350;13.828;2022-12-10T11:13:24;99401.63;;;-4.16;nan
45525;BME280;31437;58.350;13.828;2022-12-10T11:15:54;99396.50;;;-4.19;nan
45525;BME280;31437;58.350;13.828;2022-12-10T11:18:30;99396.53;;;-4.24;nan
45525;BME280;31437;58.350;13.828;2022-12-10T11:20:57;99402.53;;;-4.28;nan
45525;BME280;31437;58.350;13.828;2022-12-10T11:23:23;99401.66;;;-4.24;nan
45525;BME280;31437;58.350;13.828;2022-12-10T11:38:50;99398.44;;;-4.52;nan
45525;BME280;31437;58.350;13.828;2022-12-10T11:43:53;99407.91;;;-4.74;nan
45525;BME280;31437;58.350;13.828;2022-12-10T11:49:17;99394.38;;;-4.96;nan
45525;BME280;31437;58.350;13.828;2022-12-10T11:54:25;99398.69;;;-5.13;nan
45525;BME280;31437;58.350;13.828;2022-12-10T12:02:55;99397.91;;;-5.38;nan
45525;BME280;31437;58.350;13.828;2022-12-10T12:07:38;99401.34;;;-5.44;nan
45525;BME280;31437;58.350;13.828;2022-12-10T12:15:19;99397.09;;;-5.46;nan
45525;BME280;31437;58.350;13.828;2022-12-10T12:17:52;99402.19;;;-5.45;nan
45525;BME280;31437;58.350;13.828;2022-12-10T12:22:48;99397.94;;;-5.43;nan
45525;BME280;31437;58.350;13.828;2022-12-10T12:25:22;99391.13;;;-5.44;nan
45525;BME280;31437;58.350;13.828;2022-12-10T12:27:49;99394.50;;;-5.42;nan
45525;BME280;31437;58.350;13.828;2022-12-10T12:30:18;99390.25;;;-5.40;nan
45525;BME280;31437;58.350;13.828;2022-12-10T12:38:19;99397.06;;;-5.36;nan
45525;BME280;31437;58.350;13.828;2022-12-10T12:40:48;99398.75;;;-5.36;nan
45525;BME280;31437;58.350;13.828;2022-12-10T12:43:22;99397.94;;;-5.35;nan
45525;BME280;31437;58.350;13.828;2022-12-10T12:45:52;99398.78;;;-5.35;nan
45525;BME280;31437;58.350;13.828;2022-12-10T12:48:23;99397.94;;;-5.35;nan
45525;BME280;31437;58.350;13.828;2022-12-10T12:51:00;99396.19;;;-5.33;nan
45525;BME280;31437;58.350;13.828;2022-12-10T12:53:27;99399.59;;;-5.28;nan
45525;BME280;31437;58.350;13.828;2022-12-10T13:01:16;99403.81;;;-5.13;nan
45525;BME280;31437;58.350;13.828;2022-12-10T13:03:44;99398.69;;;-5.06;nan
45525;BME280;31437;58.350;13.828;2022-12-10T13:11:31;99403.75;;;-4.95;nan
45525;BME280;31437;58.350;13.828;2022-12-10T13:14:11;99402.88;;;-4.92;nan
45525;BME280;31437;58.350;13.828;2022-12-10T13:22:39;99410.53;;;-4.86;nan
45525;BME280;31437;58.350;13.828;2022-12-10T13:35:16;99417.47;;;-5.16;nan
45525;BME280;31437;58.350;13.828;2022-12-10T13:40:14;99427.72;;;-5.20;nan
45525;BME280;31437;58.350;13.828;2022-12-10T14:05:59;99444.81;;;-5.61;nan
45525;BME280;31437;58.350;13.828;2022-12-10T14:08:30;99452.47;;;-5.72;nan
45525;BME280;31437;58.350;13.828;2022-12-10T14:10:57;99449.06;;;-5.86;nan
45525;BME280;31437;58.350;13.828;2022-12-10T14:21:10;99451.56;;;-6.47;nan
45525;BME280;31437;58.350;13.828;2022-12-10T14:23:38;99460.00;;;-6.65;nan
45525;BME280;31437;58.350;13.828;2022-12-10T14:26:22;99460.81;;;-6.81;nan
45525;BME280;31437;58.350;13.828;2022-12-10T14:28:53;99450.50;;;-7.01;nan
45525;BME280;31437;58.350;13.828;2022-12-10T14:31:20;99456.38;;;-7.15;nan
45525;BME280;31437;58.350;13.828;2022-12-10T14:33:47;99450.38;;;-7.24;nan
45525;BME280;31437;58.350;13.828;2022-12-10T14:36:26;99457.09;;;-7.37;nan
45525;BME280;31437;58.350;13.828;2022-12-10T14:38:52;99454.44;;;-7.51;nan
45525;BME280;31437;58.350;13.828;2022-12-10T14:43:52;99464.47;;;-7.75;nan
45525;BME280;31437;58.350;13.828;2022-12-10T14:51:31;99464.16;;;-8.09;nan
45525;BME280;31437;58.350;13.828;2022-12-10T14:53:58;99457.34;;;-8.13;nan
45525;BME280;31437;58.350;13.828;2022-12-10T14:56:42;99454.78;;;-8.16;nan
45525;BME280;31437;58.350;13.828;2022-12-10T14:59:09;99459.81;;;-8.21;nan
45525;BME280;31437;58.350;13.828;2022-12-10T15:01:47;99458.91;;;-8.29;nan
45525;BME280;31437;58.350;13.828;2022-12-10T15:04:17;99469.84;;;-8.36;nan
45525;BME280;31437;58.350;13.828;2022-12-10T15:06:44;99461.25;;;-8.48;nan
45525;BME280;31437;58.350;13.828;2022-12-10T15:09:14;99472.13;;;-8.62;nan
45525;BME280;31437;58.350;13.828;2022-12-10T15:11:43;99470.25;;;-8.77;nan
45525;BME280;31437;58.350;13.828;2022-12-10T15:14:13;99468.44;;;-8.86;nan
45525;BME280;31437;58.350;13.828;2022-12-10T15:16:42;99471.72;;;-8.96;nan
45525;BME280;31437;58.350;13.828;2022-12-10T15:22:01;99478.34;;;-9.06;nan
45525;BME280;31437;58.350;13.828;2022-12-10T15:24:28;99481.72;;;-9.08;nan
45525;BME280;31437;58.350;13.828;2022-12-10T15:27:00;99484.28;;;-9.07;nan
45525;BME280;31437;58.350;13.828;2022-12-10T15:32:10;99482.50;;;-9.14;nan
45525;BME280;31437;58.350;13.828;2022-12-10T15:34:41;99480.69;;;-9.21;nan
45525;BME280;31437;58.350;13.828;2022-12-10T15:37:14;99481.41;;;-9.30;nan